sensor_id;sensor_type;location;lat;lon;timestamp;pressure;altitude;pressure_sealevel;temperature;humidity
71770;BME280;66386;52.122;5.420;2023-06-19T00:02:25;100846.81;;;21.78;52.85
71770;BME280;66386;52.122;5.420;2023-06-19T00:04:52;100848.75;;;21.76;52.27
71770;BME280;66386;52.122;5.420;2023-06-19T00:07:19;100847.09;;;21.75;52.31
71770;BME280;66386;52.122;5.420;2023-06-19T00:09:48;100858.38;;;21.75;52.41
71770;BME280;66386;52.122;5.420;2023-06-19T00:12:14;100862.91;;;21.73;52.68
71770;BME280;66386;52.122;5.420;2023-06-19T00:14:41;100857.81;;;21.72;52.42
71770;BME280;66386;52.122;5.420;2023-06-19T00:17:07;100857.94;;;21.70;52.92
71770;BME280;66386;52.122;5.420;2023-06-19T00:19:33;100852.00;;;21.68;53.09
71770;BME280;66386;52.122;5.420;2023-06-19T00:22:03;100853.66;;;21.69;53.56
71770;BME280;66386;52.122;5.420;2023-06-19T00:24:30;100841.78;;;21.65;53.21
71770;BME280;66386;52.122;5.420;2023-06-19T00:26:57;100847.88;;;21.66;53.75
71770;BME280;66386;52.122;5.420;2023-06-19T00:29:29;100855.72;;;21.66;54.42
71770;BME280;66386;52.122;5.420;2023-06-19T00:31:55;100851.44;;;21.65;54.50
71770;BME280;66386;52.122;5.420;2023-06-19T00:34:22;100847.03;;;21.65;54.57
71770;BME280;66386;52.122;5.420;2023-06-19T00:36:51;100846.34;;;21.63;54.62
71770;BME280;66386;52.122;5.420;2023-06-19T00:39:17;100852.38;;;21.64;55.13
71770;BME280;66386;52.122;5.420;2023-06-19T00:41:44;100862.84;;;21.64;55.54
71770;BME280;66386;52.122;5.420;2023-06-19T00:44:11;100864.91;;;21.60;55.81
71770;BME280;66386;52.122;5.420;2023-06-19T00:46:40;100865.28;;;21.55;56.01
71770;BME280;66386;52.122;5.420;2023-06-19T00:49:07;100878.72;;;21.51;56.39
71770;BME280;66386;52.122;5.420;2023-06-19T00:51:34;100876.22;;;21.49;56.46
71770;BME280;66386;52.122;5.420;2023-06-19T00:54:01;100877.44;;;21.45;56.72
71770;BME280;66386;52.122;5.420;2023-06-19T00:56:28;100871.75;;;21.40;57.28
71770;BME280;66386;52.122;5.420;2023-06-19T00:58:55;100879.97;;;21.35;57.42
71770;BME280;66386;52.122;5.420;2023-06-19T01:01:22;100877.75;;;21.31;57.93
71770;BME280;66386;52.122;5.420;2023-06-19T01:03:50;100878.00;;;21.27;58.38
71770;BME280;66386;52.122;5.420;2023-06-19T01:06:21;100887.16;;;21.22;58.50
71770;BME280;66386;52.122;5.420;2023-06-19T01:09:08;100885.63;;;21.19;58.58
71770;BME280;66386;52.122;5.420;2023-06-19T01:11:40;100879.09;;;21.14;59.49
71770;BME280;66386;52.122;5.420;2023-06-19T01:14:15;100886.50;;;21.08;59.46
71770;BME280;66386;52.122;5.420;2023-06-19T01:16:44;100891.13;;;21.05;60.14
71770;BME280;66386;52.122;5.420;2023-06-19T01:19:15;100890.56;;;21.01;60.28
71770;BME280;66386;52.122;5.420;2023-06-19T01:21:44;100898.75;;;20.97;60.56
71770;BME280;66386;52.122;5.420;2023-06-19T01:24:11;100900.78;;;20.93;61.11
71770;BME280;66386;52.122;5.420;2023-06-19T01:26:38;100900.31;;;20.88;61.11
71770;BME280;66386;52.122;5.420;2023-06-19T01:29:05;100904.97;;;20.84;61.78
71770;BME280;66386;52.122;5.420;2023-06-19T01:31:58;100911.38;;;20.80;61.62
71770;BME280;66386;52.122;5.420;2023-06-19T01:34:27;100916.16;;;20.75;62.52
71770;BME280;66386;52.122;5.420;2023-06-19T01:36:56;100914.72;;;20.71;62.67
71770;BME280;66386;52.122;5.420;2023-06-19T01:39:24;100914.97;;;20.68;62.70
71770;BME280;66386;52.122;5.420;2023-06-19T01:41:51;100918.72;;;20.64;63.32
71770;BME280;66386;52.122;5.420;2023-06-19T01:44:18;100918.25;;;20.58;63.52
71770;BME280;66386;52.122;5.420;2023-06-19T01:46:49;100918.59;;;20.54;64.20
71770;BME280;66386;52.122;5.420;2023-06-19T01:49:17;100920.66;;;20.50;64.71
71770;BME280;66386;52.122;5.420;2023-06-19T01:51:44;100924.56;;;20.45;64.90
71770;BME280;66386;52.122;5.420;2023-06-19T01:54:10;100918.72;;;20.41;65.13
71770;BME280;66386;52.122;5.420;2023-06-19T01:56:37;100914.47;;;20.40;65.27
71770;BME280;66386;52.122;5.420;2023-06-19T01:59:03;100921.22;;;20.43;65.53
71770;BME280;66386;52.122;5.420;2023-06-19T02:01:30;100922.19;;;20.42;65.54
71770;BME280;66386;52.122;5.420;2023-06-19T02:03:56;100927.53;;;20.40;65.91
71770;BME280;66386;52.122;5.420;2023-06-19T02:06:23;100929.41;;;20.38;65.76
71770;BME280;66386;52.122;5.420;2023-06-19T02:08:49;100934.63;;;20.38;66.31
71770;BME280;66386;52.122;5.420;2023-06-19T02:11:16;100922.50;;;20.37;66.53
71770;BME280;66386;52.122;5.420;2023-06-19T02:13:42;100929.03;;;20.43;66.53
71770;BME280;66386;52.122;5.420;2023-06-19T02:16:09;100934.16;;;20.44;66.89
71770;BME280;66386;52.122;5.420;2023-06-19T02:18:35;100933.31;;;20.44;67.00
71770;BME280;66386;52.122;5.420;2023-06-19T02:21:02;100935.00;;;20.45;67.16
71770;BME280;66386;52.122;5.420;2023-06-19T02:23:28;100936.75;;;20.44;67.56
71770;BME280;66386;52.122;5.420;2023-06-19T02:25:55;100935.81;;;20.45;67.56
71770;BME280;66386;52.122;5.420;2023-06-19T02:28:22;100937.59;;;20.45;67.65
71770;BME280;66386;52.122;5.420;2023-06-19T02:30:48;100941.97;;;20.44;67.96
71770;BME280;66386;52.122;5.420;2023-06-19T02:33:15;100939.38;;;20.44;68.09
71770;BME280;66386;52.122;5.420;2023-06-19T02:35:41;100946.50;;;20.42;68.24
71770;BME280;66386;52.122;5.420;2023-06-19T02:38:08;100942.94;;;20.43;68.11
71770;BME280;66386;52.122;5.420;2023-06-19T02:40:34;100947.44;;;20.41;68.40
71770;BME280;66386;52.122;5.420;2023-06-19T02:43:01;100939.03;;;20.37;68.76
71770;BME280;66386;52.122;5.420;2023-06-19T02:45:27;100940.69;;;20.38;68.76
71770;BME280;66386;52.122;5.420;2023-06-19T02:47:54;100949.47;;;20.37;68.93
71770;BME280;66386;52.122;5.420;2023-06-19T02:50:20;100949.47;;;20.37;68.97
71770;BME280;66386;52.122;5.420;2023-06-19T02:52:47;100952.09;;;20.37;68.92
71770;BME280;66386;52.122;5.420;2023-06-19T02:55:14;100958.97;;;20.38;68.81
71770;BME280;66386;52.122;5.420;2023-06-19T02:57:40;100958.13;;;20.38;69.14
71770;BME280;66386;52.122;5.420;2023-06-19T03:00:07;100968.56;;;20.38;69.34
71770;BME280;66386;52.122;5.420;2023-06-19T03:02:35;100972.03;;;20.38;69.37
71770;BME280;66386;52.122;5.420;2023-06-19T03:05:02;100969.41;;;20.38;69.47
71770;BME280;66386;52.122;5.420;2023-06-19T03:07:29;100967.13;;;20.34;69.77
71770;BME280;66386;52.122;5.420;2023-06-19T03:09:55;100968.91;;;20.33;69.73
71770;BME280;66386;52.122;5.420;2023-06-19T03:12:22;100966.06;;;20.36;69.45
71770;BME280;66386;52.122;5.420;2023-06-19T03:14:48;100958.25;;;20.36;69.56
71770;BME280;66386;52.122;5.420;2023-06-19T03:17:15;100948.84;;;20.34;69.91
71770;BME280;66386;52.122;5.420;2023-06-19T03:19:41;100962.88;;;20.33;69.91
71770;BME280;66386;52.122;5.420;2023-06-19T03:22:08;100963.00;;;20.31;70.35
71770;BME280;66386;52.122;5.420;2023-06-19T03:24:34;100963.94;;;20.30;70.60
71770;BME280;66386;52.122;5.420;2023-06-19T03:27:00;100968.47;;;20.28;70.95
71770;BME280;66386;52.122;5.420;2023-06-19T03:29:27;100967.50;;;20.29;70.71
71770;BME280;66386;52.122;5.420;2023-06-19T03:31:54;100964.19;;;20.27;70.68
71770;BME280;66386;52.122;5.420;2023-06-19T03:34:20;100983.25;;;20.28;71.08
71770;BME280;66386;52.122;5.420;2023-06-19T03:36:47;100981.50;;;20.28;71.00
71770;BME280;66386;52.122;5.420;2023-06-19T03:39:13;100983.03;;;20.31;71.22
71770;BME280;66386;52.122;5.420;2023-06-19T03:41:40;100986.59;;;20.30;71.08
71770;BME280;66386;52.122;5.420;2023-06-19T03:44:06;100977.94;;;20.29;71.20
71770;BME280;66386;52.122;5.420;2023-06-19T03:46:33;100997.25;;;20.27;71.65
71770;BME280;66386;52.122;5.420;2023-06-19T03:48:59;100994.88;;;20.23;71.77
71770;BME280;66386;52.122;5.420;2023-06-19T03:51:28;100994.06;;;20.23;72.28
71770;BME280;66386;52.122;5.420;2023-06-19T03:53:55;101002.94;;;20.20;72.24
71770;BME280;66386;52.122;5.420;2023-06-19T03:56:21;101005.78;;;20.17;73.09
71770;BME280;66386;52.122;5.420;2023-06-19T03:58:48;101011.25;;;20.14;73.40
71770;BME280;66386;52.122;5.420;2023-06-19T04:01:14;101012.28;;;20.12;73.72
71770;BME280;66386;52.122;5.420;2023-06-19T04:03:41;101012.41;;;20.10;74.32
71770;BME280;66386;52.122;5.420;2023-06-19T04:06:07;101017.16;;;20.05;74.84
71770;BME280;66386;52.122;5.420;2023-06-19T04:08:34;101016.31;;;20.04;75.18
71770;BME280;66386;52.122;5.420;2023-06-19T04:11:00;101019.75;;;20.05;75.22
71770;BME280;66386;52.122;5.420;2023-06-19T04:13:27;101025.09;;;20.03;75.36
71770;BME280;66386;52.122;5.420;2023-06-19T04:15:53;101036.59;;;20.01;75.57
71770;BME280;66386;52.122;5.420;2023-06-19T04:18:20;101034.91;;;20.00;76.27
71770;BME280;66386;52.122;5.420;2023-06-19T04:20:46;101033.34;;;19.97;76.00
71770;BME280;66386;52.122;5.420;2023-06-19T04:23:13;101033.34;;;19.97;76.28
71770;BME280;66386;52.122;5.420;2023-06-19T04:25:39;101035.72;;;20.00;76.18
71770;BME280;66386;52.122;5.420;2023-06-19T04:28:06;101033.75;;;20.04;76.52
71770;BME280;66386;52.122;5.420;2023-06-19T04:30:32;101043.34;;;20.03;76.47
71770;BME280;66386;52.122;5.420;2023-06-19T04:32:59;101043.56;;;20.00;76.48
71770;BME280;66386;52.122;5.420;2023-06-19T04:35:26;101054.22;;;19.97;76.79
71770;BME280;66386;52.122;5.420;2023-06-19T04:37:53;101051.63;;;19.97;76.78
71770;BME280;66386;52.122;5.420;2023-06-19T04:40:20;101063.72;;;19.98;76.95
71770;BME280;66386;52.122;5.420;2023-06-19T04:42:47;101063.84;;;19.97;76.99
71770;BME280;66386;52.122;5.420;2023-06-19T04:45:13;101066.34;;;19.98;77.21
71770;BME280;66386;52.122;5.420;2023-06-19T04:47:40;101063.84;;;19.97;77.41
71770;BME280;66386;52.122;5.420;2023-06-19T04:50:18;101065.22;;;19.90;77.59
71770;BME280;66386;52.122;5.420;2023-06-19T04:52:44;101076.59;;;19.88;77.54
71770;BME280;66386;52.122;5.420;2023-06-19T04:55:10;101074.63;;;19.92;77.31
71770;BME280;66386;52.122;5.420;2023-06-19T04:57:37;101079.50;;;19.97;76.96
71770;BME280;66386;52.122;5.420;2023-06-19T05:00:04;101078.56;;;19.98;75.92
71770;BME280;66386;52.122;5.420;2023-06-19T05:02:33;101073.00;;;20.02;75.78
71770;BME280;66386;52.122;5.420;2023-06-19T05:05:00;101081.41;;;20.06;74.92
71770;BME280;66386;52.122;5.420;2023-06-19T05:07:29;101080.13;;;20.12;74.51
71770;BME280;66386;52.122;5.420;2023-06-19T05:09:57;101081.94;;;20.11;73.85
71770;BME280;66386;52.122;5.420;2023-06-19T05:12:24;101088.81;;;20.12;74.00
71770;BME280;66386;52.122;5.420;2023-06-19T05:14:51;101086.81;;;20.16;73.68
71770;BME280;66386;52.122;5.420;2023-06-19T05:17:17;101083.50;;;20.14;73.83
71770;BME280;66386;52.122;5.420;2023-06-19T05:19:44;101097.34;;;20.14;73.53
71770;BME280;66386;52.122;5.420;2023-06-19T05:22:10;101094.03;;;20.12;73.94
71770;BME280;66386;52.122;5.420;2023-06-19T05:24:37;101102.28;;;20.06;73.30
71770;BME280;66386;52.122;5.420;2023-06-19T05:27:04;101104.19;;;20.04;73.43
71770;BME280;66386;52.122;5.420;2023-06-19T05:29:31;101097.63;;;19.98;73.24
71770;BME280;66386;52.122;5.420;2023-06-19T05:31:58;101102.97;;;19.97;73.38
71770;BME280;66386;52.122;5.420;2023-06-19T05:34:24;101106.63;;;19.94;73.43
71770;BME280;66386;52.122;5.420;2023-06-19T05:36:51;101104.25;;;19.91;73.15
71770;BME280;66386;52.122;5.420;2023-06-19T05:39:17;101109.69;;;19.88;73.27
71770;BME280;66386;52.122;5.420;2023-06-19T05:41:45;101107.41;;;19.83;72.99
71770;BME280;66386;52.122;5.420;2023-06-19T05:44:12;101117.22;;;19.80;72.84
71770;BME280;66386;52.122;5.420;2023-06-19T05:46:43;101117.63;;;19.86;72.96
71770;BME280;66386;52.122;5.420;2023-06-19T05:49:09;101126.91;;;19.91;72.66
71770;BME280;66386;52.122;5.420;2023-06-19T05:51:36;101124.50;;;19.87;72.63
71770;BME280;66386;52.122;5.420;2023-06-19T05:54:03;101122.72;;;19.88;73.00
71770;BME280;66386;52.122;5.420;2023-06-19T05:56:30;101123.25;;;19.93;73.26
71770;BME280;66386;52.122;5.420;2023-06-19T05:59:00;101122.16;;;19.96;72.99
71770;BME280;66386;52.122;5.420;2023-06-19T06:01:28;101124.06;;;19.94;73.06
71770;BME280;66386;52.122;5.420;2023-06-19T06:03:55;101129.28;;;19.94;73.26
71770;BME280;66386;52.122;5.420;2023-06-19T06:06:23;101132.81;;;19.93;72.92
71770;BME280;66386;52.122;5.420;2023-06-19T06:08:49;101134.72;;;19.91;73.25
71770;BME280;66386;52.122;5.420;2023-06-19T06:11:18;101147.66;;;19.92;73.35
71770;BME280;66386;52.122;5.420;2023-06-19T06:13:44;101148.25;;;19.96;72.81
71770;BME280;66386;52.122;5.420;2023-06-19T06:16:11;101146.50;;;19.96;72.47
71770;BME280;66386;52.122;5.420;2023-06-19T06:18:37;101154.09;;;19.99;72.73
71770;BME280;66386;52.122;5.420;2023-06-19T06:21:04;101158.66;;;20.09;71.90
71770;BME280;66386;52.122;5.420;2023-06-19T06:23:30;101169.03;;;20.21;72.10
71770;BME280;66386;52.122;5.420;2023-06-19T06:25:57;101171.84;;;20.67;70.58
71770;BME280;66386;52.122;5.420;2023-06-19T06:28:28;101176.19;;;20.90;68.92
71770;BME280;66386;52.122;5.420;2023-06-19T06:30:55;101167.19;;;21.06;66.44
71770;BME280;66386;52.122;5.420;2023-06-19T06:33:22;101179.69;;;21.82;63.84
71770;BME280;66386;52.122;5.420;2023-06-19T06:35:49;101173.38;;;21.84;64.11
71770;BME280;66386;52.122;5.420;2023-06-19T06:38:15;101172.28;;;22.30;62.13
71770;BME280;66386;52.122;5.420;2023-06-19T06:40:42;101172.88;;;22.66;59.96
71770;BME280;66386;52.122;5.420;2023-06-19T06:43:09;101189.59;;;22.22;60.79
71770;BME280;66386;52.122;5.420;2023-06-19T06:45:35;101183.75;;;21.63;61.37
71770;BME280;66386;52.122;5.420;2023-06-19T06:48:04;101190.63;;;21.30;62.78
71770;BME280;66386;52.122;5.420;2023-06-19T06:50:33;101192.88;;;21.23;63.12
71770;BME280;66386;52.122;5.420;2023-06-19T06:53:00;101186.69;;;21.13;64.14
71770;BME280;66386;52.122;5.420;2023-06-19T06:55:27;101204.50;;;21.08;63.97
71770;BME280;66386;52.122;5.420;2023-06-19T06:57:53;101205.66;;;20.92;64.09
71770;BME280;66386;52.122;5.420;2023-06-19T07:00:20;101210.16;;;20.90;64.46
71770;BME280;66386;52.122;5.420;2023-06-19T07:02:47;101212.59;;;20.81;64.84
71770;BME280;66386;52.122;5.420;2023-06-19T07:05:16;101220.38;;;20.82;64.35
71770;BME280;66386;52.122;5.420;2023-06-19T07:07:43;101216.75;;;20.72;64.52
71770;BME280;66386;52.122;5.420;2023-06-19T07:10:09;101221.13;;;20.71;64.55
71770;BME280;66386;52.122;5.420;2023-06-19T07:12:47;101218.53;;;20.71;64.56
71770;BME280;66386;52.122;5.420;2023-06-19T07:15:14;101234.13;;;20.84;64.92
71770;BME280;66386;52.122;5.420;2023-06-19T07:17:40;101232.25;;;20.98;65.09
71770;BME280;66386;52.122;5.420;2023-06-19T07:20:07;101235.63;;;21.00;65.33
71770;BME280;66386;52.122;5.420;2023-06-19T07:22:34;101241.69;;;21.12;65.02
71770;BME280;66386;52.122;5.420;2023-06-19T07:25:00;101242.66;;;21.33;65.08
71770;BME280;66386;52.122;5.420;2023-06-19T07:27:27;101245.63;;;21.28;64.78
71770;BME280;66386;52.122;5.420;2023-06-19T07:29:55;101242.19;;;21.28;65.22
71770;BME280;66386;52.122;5.420;2023-06-19T07:32:21;101256.22;;;21.27;65.68
71770;BME280;66386;52.122;5.420;2023-06-19T07:34:48;101260.00;;;21.23;65.71
71770;BME280;66386;52.122;5.420;2023-06-19T07:37:14;101259.28;;;21.21;65.62
71770;BME280;66386;52.122;5.420;2023-06-19T07:39:48;101259.97;;;21.00;65.43
71770;BME280;66386;52.122;5.420;2023-06-19T07:42:17;101257.38;;;21.12;65.37
71770;BME280;66386;52.122;5.420;2023-06-19T07:44:44;101260.69;;;21.14;63.65
71770;BME280;66386;52.122;5.420;2023-06-19T07:47:11;101264.56;;;21.32;63.25
71770;BME280;66386;52.122;5.420;2023-06-19T07:49:37;101268.28;;;21.52;61.56
71770;BME280;66386;52.122;5.420;2023-06-19T07:52:04;101268.75;;;21.57;61.94
71770;BME280;66386;52.122;5.420;2023-06-19T07:54:33;101281.13;;;21.67;60.51
71770;BME280;66386;52.122;5.420;2023-06-19T07:57:00;101277.09;;;21.63;61.23
71770;BME280;66386;52.122;5.420;2023-06-19T07:59:26;101274.00;;;21.69;61.50
71770;BME280;66386;52.122;5.420;2023-06-19T08:01:53;101284.22;;;21.94;60.81
71770;BME280;66386;52.122;5.420;2023-06-19T08:04:19;101287.28;;;22.22;59.75
71770;BME280;66386;52.122;5.420;2023-06-19T08:06:46;101283.16;;;22.20;59.67
71770;BME280;66386;52.122;5.420;2023-06-19T08:09:12;101288.16;;;22.11;60.46
71770;BME280;66386;52.122;5.420;2023-06-19T08:11:40;101283.47;;;22.15;60.23
71770;BME280;66386;52.122;5.420;2023-06-19T08:14:06;101292.19;;;22.04;60.33
71770;BME280;66386;52.122;5.420;2023-06-19T08:16:32;101290.28;;;22.06;60.95
71770;BME280;66386;52.122;5.420;2023-06-19T08:18:59;101296.94;;;22.10;60.49
71770;BME280;66386;52.122;5.420;2023-06-19T08:21:25;101297.28;;;22.40;59.48
71770;BME280;66386;52.122;5.420;2023-06-19T08:23:52;101299.63;;;22.54;59.38
71770;BME280;66386;52.122;5.420;2023-06-19T08:26:18;101300.09;;;22.59;59.10
71770;BME280;66386;52.122;5.420;2023-06-19T08:28:45;101299.31;;;22.80;57.90
71770;BME280;66386;52.122;5.420;2023-06-19T08:31:11;101310.59;;;22.92;57.33
71770;BME280;66386;52.122;5.420;2023-06-19T08:33:38;101300.63;;;22.74;58.38
71770;BME280;66386;52.122;5.420;2023-06-19T08:36:04;101316.19;;;22.55;58.33
71770;BME280;66386;52.122;5.420;2023-06-19T08:38:31;101311.28;;;22.61;59.03
71770;BME280;66386;52.122;5.420;2023-06-19T08:40:58;101316.50;;;22.73;57.69
71770;BME280;66386;52.122;5.420;2023-06-19T08:43:24;101332.47;;;22.70;57.97
71770;BME280;66386;52.122;5.420;2023-06-19T08:46:20;101336.03;;;23.12;57.71
71770;BME280;66386;52.122;5.420;2023-06-19T08:48:46;101338.59;;;23.24;56.83
71770;BME280;66386;52.122;5.420;2023-06-19T08:51:13;101338.97;;;23.19;57.59
71770;BME280;66386;52.122;5.420;2023-06-19T08:53:47;101341.38;;;23.11;57.01
71770;BME280;66386;52.122;5.420;2023-06-19T08:56:14;101340.44;;;23.12;56.79
71770;BME280;66386;52.122;5.420;2023-06-19T08:58:41;101343.63;;;22.83;57.43
71770;BME280;66386;52.122;5.420;2023-06-19T09:01:07;101342.53;;;22.86;57.14
71770;BME280;66386;52.122;5.420;2023-06-19T09:03:34;101337.88;;;22.89;58.54
71770;BME280;66386;52.122;5.420;2023-06-19T09:06:06;101334.94;;;23.15;57.50
71770;BME280;66386;52.122;5.420;2023-06-19T09:08:33;101337.25;;;23.29;56.88
71770;BME280;66386;52.122;5.420;2023-06-19T09:11:04;101340.84;;;23.28;57.41
71770;BME280;66386;52.122;5.420;2023-06-19T09:13:33;101347.88;;;23.28;56.77
71770;BME280;66386;52.122;5.420;2023-06-19T09:16:05;101341.28;;;23.33;57.45
71770;BME280;66386;52.122;5.420;2023-06-19T09:18:47;101351.97;;;23.42;56.89
71770;BME280;66386;52.122;5.420;2023-06-19T09:21:19;101352.84;;;23.73;56.37
71770;BME280;66386;52.122;5.420;2023-06-19T09:23:48;101357.41;;;24.02;55.15
71770;BME280;66386;52.122;5.420;2023-06-19T09:26:16;101361.44;;;23.54;55.16
71770;BME280;66386;52.122;5.420;2023-06-19T09:28:44;101367.56;;;23.22;57.10
71770;BME280;66386;52.122;5.420;2023-06-19T09:31:11;101370.44;;;23.19;57.40
71770;BME280;66386;52.122;5.420;2023-06-19T09:33:41;101362.31;;;23.22;56.33
71770;BME280;66386;52.122;5.420;2023-06-19T09:36:07;101364.13;;;23.43;57.04
71770;BME280;66386;52.122;5.420;2023-06-19T09:38:38;101371.34;;;23.50;56.27
71770;BME280;66386;52.122;5.420;2023-06-19T09:41:06;101377.09;;;23.65;55.68
71770;BME280;66386;52.122;5.420;2023-06-19T09:43:38;101378.53;;;23.91;55.09
71770;BME280;66386;52.122;5.420;2023-06-19T09:46:06;101377.25;;;24.16;54.75
71770;BME280;66386;52.122;5.420;2023-06-19T09:48:34;101381.69;;;24.25;54.41
71770;BME280;66386;52.122;5.420;2023-06-19T09:51:10;101384.06;;;24.59;53.62
71770;BME280;66386;52.122;5.420;2023-06-19T09:53:38;101399.44;;;24.33;52.55
71770;BME280;66386;52.122;5.420;2023-06-19T09:56:06;101398.31;;;24.26;53.79
71770;BME280;66386;52.122;5.420;2023-06-19T09:58:34;101405.41;;;24.95;52.57
71770;BME280;66386;52.122;5.420;2023-06-19T10:01:03;101395.19;;;25.31;51.08
71770;BME280;66386;52.122;5.420;2023-06-19T10:03:34;101394.50;;;25.49;50.48
71770;BME280;66386;52.122;5.420;2023-06-19T10:06:03;101392.59;;;25.88;50.13
71770;BME280;66386;52.122;5.420;2023-06-19T10:08:31;101416.69;;;26.03;49.43
71770;BME280;66386;52.122;5.420;2023-06-19T10:10:58;101403.03;;;25.70;49.20
71770;BME280;66386;52.122;5.420;2023-06-19T10:13:32;101400.38;;;25.80;49.37
71770;BME280;66386;52.122;5.420;2023-06-19T10:16:00;101397.84;;;26.36;48.35
71770;BME280;66386;52.122;5.420;2023-06-19T10:18:27;101391.41;;;26.20;47.39
71770;BME280;66386;52.122;5.420;2023-06-19T10:20:54;101393.63;;;26.15;48.63
71770;BME280;66386;52.122;5.420;2023-06-19T10:23:23;101390.13;;;26.52;48.00
71770;BME280;66386;52.122;5.420;2023-06-19T10:26:00;101387.78;;;26.95;47.20
71770;BME280;66386;52.122;5.420;2023-06-19T10:28:32;101395.81;;;27.47;45.90
71770;BME280;66386;52.122;5.420;2023-06-19T10:31:04;101399.28;;;27.74;44.67
71770;BME280;66386;52.122;5.420;2023-06-19T10:33:33;101400.78;;;27.50;44.24
71770;BME280;66386;52.122;5.420;2023-06-19T10:36:01;101405.03;;;27.07;44.87
71770;BME280;66386;52.122;5.420;2023-06-19T10:38:28;101395.91;;;26.56;46.15
71770;BME280;66386;52.122;5.420;2023-06-19T10:40:55;101394.94;;;26.57;46.31
71770;BME280;66386;52.122;5.420;2023-06-19T10:43:23;101400.72;;;26.60;46.65
71770;BME280;66386;52.122;5.420;2023-06-19T10:45:51;101407.50;;;26.45;45.63
71770;BME280;66386;52.122;5.420;2023-06-19T10:48:20;101402.09;;;26.46;45.91
71770;BME280;66386;52.122;5.420;2023-06-19T10:50:47;101401.47;;;26.53;46.56
71770;BME280;66386;52.122;5.420;2023-06-19T10:53:31;101403.84;;;26.28;46.48
71770;BME280;66386;52.122;5.420;2023-06-19T10:55:59;101401.75;;;25.84;47.07
71770;BME280;66386;52.122;5.420;2023-06-19T10:58:27;101391.50;;;25.81;46.88
71770;BME280;66386;52.122;5.420;2023-06-19T11:00:55;101395.09;;;26.27;47.20
71770;BME280;66386;52.122;5.420;2023-06-19T11:03:21;101388.91;;;26.64;44.63
71770;BME280;66386;52.122;5.420;2023-06-19T11:05:48;101395.44;;;26.88;44.80
71770;BME280;66386;52.122;5.420;2023-06-19T11:08:19;101402.38;;;27.25;44.17
71770;BME280;66386;52.122;5.420;2023-06-19T11:10:46;101396.59;;;27.40;44.13
71770;BME280;66386;52.122;5.420;2023-06-19T11:13:18;101395.44;;;27.42;42.35
71770;BME280;66386;52.122;5.420;2023-06-19T11:15:47;101392.06;;;26.96;42.99
71770;BME280;66386;52.122;5.420;2023-06-19T11:18:17;101387.78;;;26.95;43.74
71770;BME280;66386;52.122;5.420;2023-06-19T11:20:48;101393.50;;;26.90;43.20
71770;BME280;66386;52.122;5.420;2023-06-19T11:23:24;101390.75;;;26.36;44.88
71770;BME280;66386;52.122;5.420;2023-06-19T11:25:50;101387.44;;;26.34;45.43
71770;BME280;66386;52.122;5.420;2023-06-19T11:28:17;101396.81;;;26.64;45.02
71770;BME280;66386;52.122;5.420;2023-06-19T11:30:58;101398.91;;;27.07;44.24
71770;BME280;66386;52.122;5.420;2023-06-19T11:33:25;101397.63;;;27.47;42.81
71770;BME280;66386;52.122;5.420;2023-06-19T11:35:52;101400.06;;;27.66;42.70
71770;BME280;66386;52.122;5.420;2023-06-19T11:38:20;101392.78;;;27.60;43.03
71770;BME280;66386;52.122;5.420;2023-06-19T11:40:48;101387.47;;;27.86;41.76
71770;BME280;66386;52.122;5.420;2023-06-19T11:43:30;101402.38;;;27.69;42.06
71770;BME280;66386;52.122;5.420;2023-06-19T11:46:07;101402.38;;;27.69;42.76
71770;BME280;66386;52.122;5.420;2023-06-19T11:48:37;101403.28;;;28.04;41.91
71770;BME280;66386;52.122;5.420;2023-06-19T11:51:04;101407.72;;;27.78;42.71
71770;BME280;66386;52.122;5.420;2023-06-19T11:53:30;101401.75;;;27.76;40.45
71770;BME280;66386;52.122;5.420;2023-06-19T11:55:57;101405.88;;;27.70;40.69
71770;BME280;66386;52.122;5.420;2023-06-19T11:58:23;101401.66;;;27.59;41.08
71770;BME280;66386;52.122;5.420;2023-06-19T12:00:50;101395.91;;;27.38;42.87
71770;BME280;66386;52.122;5.420;2023-06-19T12:03:16;101393.31;;;27.46;41.35
71770;BME280;66386;52.122;5.420;2023-06-19T12:05:43;101393.09;;;27.92;40.21
71770;BME280;66386;52.122;5.420;2023-06-19T12:08:09;101394.38;;;28.14;40.18
71770;BME280;66386;52.122;5.420;2023-06-19T12:10:36;101401.81;;;27.84;39.58
71770;BME280;66386;52.122;5.420;2023-06-19T12:13:03;101398.47;;;27.74;40.83
71770;BME280;66386;52.122;5.420;2023-06-19T12:15:29;101403.75;;;27.74;41.11
71770;BME280;66386;52.122;5.420;2023-06-19T12:17:56;101398.06;;;27.95;40.60
71770;BME280;66386;52.122;5.420;2023-06-19T12:20:25;101404.19;;;28.21;40.02
71770;BME280;66386;52.122;5.420;2023-06-19T12:22:52;101402.88;;;28.26;40.63
71770;BME280;66386;52.122;5.420;2023-06-19T12:25:18;101403.91;;;28.33;40.77
71770;BME280;66386;52.122;5.420;2023-06-19T12:27:45;101396.75;;;28.76;39.19
71770;BME280;66386;52.122;5.420;2023-06-19T12:30:12;101405.06;;;29.06;38.48
71770;BME280;66386;52.122;5.420;2023-06-19T12:32:38;101404.88;;;29.16;37.67
71770;BME280;66386;52.122;5.420;2023-06-19T12:35:05;101405.91;;;29.15;38.45
71770;BME280;66386;52.122;5.420;2023-06-19T12:37:32;101398.13;;;29.46;38.42
71770;BME280;66386;52.122;5.420;2023-06-19T12:39:59;101398.25;;;29.61;37.87
71770;BME280;66386;52.122;5.420;2023-06-19T12:42:25;101410.84;;;29.51;37.37
71770;BME280;66386;52.122;5.420;2023-06-19T12:44:52;101406.91;;;29.30;38.22
71770;BME280;66386;52.122;5.420;2023-06-19T12:47:18;101404.53;;;28.94;37.59
71770;BME280;66386;52.122;5.420;2023-06-19T12:49:45;101404.50;;;28.61;38.57
71770;BME280;66386;52.122;5.420;2023-06-19T12:52:11;101410.75;;;28.52;38.75
71770;BME280;66386;52.122;5.420;2023-06-19T12:54:38;101409.09;;;28.59;38.48